createdAt,value
2022-11-16T00:01:36.117Z,41.67
2022-11-16T00:04:04.004Z,40.20
2022-11-16T00:06:31.902Z,49.47
2022-11-16T00:09:14.822Z,42.70
2022-11-16T00:11:52.578Z,42.60
2022-11-16T00:14:29.388Z,37.30
2022-11-16T00:17:13.539Z,41.67
2022-11-16T00:19:42.416Z,42.67
2022-11-16T00:22:09.555Z,40.03
2022-11-16T00:24:57.199Z,36.75
2022-11-16T00:27:26.501Z,41.38
2022-11-16T00:30:09.018Z,42.53
2022-11-16T00:32:47.395Z,44.05
2022-11-16T00:35:28.310Z,41.95
2022-11-16T00:38:13.690Z,40.38
2022-11-16T00:40:59.871Z,39.90
2022-11-16T00:43:47.651Z,40.50
2022-11-16T00:46:16.271Z,45.47
2022-11-16T00:48:52.866Z,45.88
2022-11-16T00:51:19.513Z,42.35
2022-11-16T00:53:52.935Z,41.22
2022-11-16T00:56:25.228Z,43.13
2022-11-16T00:58:59.724Z,39.28
2022-11-16T01:03:57.242Z,41.15
2022-11-16T01:06:28.834Z,36.78
2022-11-16T01:08:56.084Z,40.83
2022-11-16T01:11:22.626Z,35.45
2022-11-16T01:13:49.173Z,39.40
2022-11-16T01:16:20.112Z,39.15
2022-11-16T01:18:56.739Z,38.65
2022-11-16T01:21:27.694Z,39.05
2022-11-16T01:23:55.278Z,40.50
2022-11-16T01:26:22.082Z,39.38
2022-11-16T01:28:48.684Z,41.67
2022-11-16T01:31:15.251Z,33.75
2022-11-16T01:33:44.865Z,36.53
2022-11-16T01:36:13.360Z,32.88
2022-11-16T01:38:47.299Z,38.50
2022-11-16T01:41:16.389Z,38.10
2022-11-16T01:44:02.193Z,38.38
2022-11-16T01:46:31.851Z,40.47
2022-11-16T01:49:20.438Z,40.70
2022-11-16T01:51:57.022Z,38.35
2022-11-16T01:54:27.427Z,40.88
2022-11-16T01:56:55.220Z,37.75
2022-11-16T01:59:21.938Z,44.83
2022-11-16T02:01:52.360Z,38.72
2022-11-16T02:04:19.178Z,42.63
2022-11-16T02:07:12.755Z,44.15
2022-11-16T02:10:19.794Z,34.50
2022-11-16T02:12:58.508Z,41.20
2022-11-16T02:15:41.857Z,38.78
2022-11-16T02:18:08.419Z,38.47
2022-11-16T02:20:38.026Z,36.15
2022-11-16T02:23:29.473Z,40.92
2022-11-16T02:26:29.910Z,37.90
2022-11-16T02:29:23.175Z,36.85
2022-11-16T02:31:58.721Z,35.50
2022-11-16T02:34:39.300Z,33.72
2022-11-16T02:37:11.331Z,31.58
2022-11-16T02:39:42.816Z,35.10
2022-11-16T02:42:17.757Z,31.58
2022-11-16T02:45:02.298Z,34.50
2022-11-16T02:47:36.970Z,30.58
2022-11-16T02:50:17.252Z,34.08
2022-11-16T02:52:46.934Z,34.28
2022-11-16T02:55:16.375Z,30.88
2022-11-16T02:58:06.346Z,33.67
2022-11-16T03:00:56.419Z,32.13
2022-11-16T03:03:37.927Z,35.45
2022-11-16T03:06:09.498Z,31.38
2022-11-16T03:09:02.214Z,32.55
2022-11-16T03:11:32.844Z,34.00
2022-11-16T03:14:09.553Z,38.60
2022-11-16T03:16:43.302Z,34.78
2022-11-16T03:19:14.561Z,38.13
2022-11-16T03:21:48.905Z,35.17
2022-11-16T03:24:16.224Z,34.90
2022-11-16T03:26:58.306Z,36.40
2022-11-16T03:29:41.356Z,29.95
2022-11-16T03:32:54.437Z,32.13
2022-11-16T03:35:35.386Z,33.15
2022-11-16T03:38:05.692Z,32.40
2022-11-16T03:40:38.757Z,32.38
2022-11-16T03:43:07.280Z,30.52
2022-11-16T03:45:34.198Z,31.23
2022-11-16T03:48:01.261Z,31.40
2022-11-16T03:53:00.307Z,29.77
2022-11-16T03:55:27.106Z,29.17
2022-11-16T03:57:58.598Z,31.40
2022-11-16T04:00:28.338Z,31.13
2022-11-16T04:02:54.882Z,28.80
2022-11-16T04:05:21.494Z,30.38
2022-11-16T04:07:50.037Z,25.83
2022-11-16T04:10:18.963Z,28.23
2022-11-16T04:12:45.604Z,27.60
2022-11-16T04:15:12.458Z,27.58
2022-11-16T04:17:39.221Z,26.55
2022-11-16T04:20:06.054Z,25.85
2022-11-16T04:22:42.745Z,27.67
2022-11-16T04:25:15.813Z,27.40
2022-11-16T04:27:42.782Z,30.70
2022-11-16T04:30:10.378Z,30.23
2022-11-16T04:32:37.570Z,26.83
2022-11-16T04:35:04.278Z,31.30
2022-11-16T04:37:34.537Z,26.52
2022-11-16T04:40:03.505Z,27.02
2022-11-16T04:42:36.187Z,28.20
2022-11-16T04:45:02.759Z,26.05
2022-11-16T04:47:31.984Z,26.85
2022-11-16T04:49:59.079Z,29.00
2022-11-16T04:52:25.716Z,28.95
2022-11-16T04:54:52.648Z,26.67
2022-11-16T04:57:24.201Z,27.77
2022-11-16T04:59:58.644Z,30.85
2022-11-16T05:02:25.463Z,32.60
2022-11-16T05:04:53.945Z,27.63
2022-11-16T05:07:20.835Z,33.08
2022-11-16T05:09:48.729Z,30.92
2022-11-16T05:12:18.258Z,28.20
2022-11-16T05:14:50.705Z,28.40
2022-11-16T05:17:20.725Z,28.92
2022-11-16T05:19:47.596Z,27.48
2022-11-16T05:22:14.180Z,28.48
2022-11-16T05:24:40.722Z,32.28
2022-11-16T05:27:10.336Z,25.08
2022-11-16T05:29:36.921Z,28.95
2022-11-16T05:32:07.650Z,32.90
2022-11-16T05:34:40.444Z,30.60
2022-11-16T05:37:13.542Z,32.58
2022-11-16T05:39:43.353Z,35.53
2022-11-16T05:42:12.258Z,38.05
2022-11-16T05:44:38.869Z,30.13
2022-11-16T05:47:05.925Z,33.67
2022-11-16T05:49:32.553Z,30.58
2022-11-16T05:51:59.340Z,33.90
2022-11-16T05:54:26.372Z,34.80
2022-11-16T05:56:53.827Z,33.53
2022-11-16T05:59:22.311Z,31.98
2022-11-16T06:01:51.383Z,34.92
2022-11-16T06:04:24.349Z,30.65
2022-11-16T06:06:51.470Z,38.72
2022-11-16T06:09:18.180Z,30.88
2022-11-16T06:11:51.162Z,31.15
2022-11-16T06:14:18.821Z,33.38
2022-11-16T06:16:45.495Z,33.08
2022-11-16T06:19:12.491Z,39.17
2022-11-16T06:21:43.741Z,34.85
2022-11-16T06:24:10.337Z,41.55
2022-11-16T06:28:27.634Z,39.54
2022-11-16T06:30:54.483Z,38.63
2022-11-16T06:33:21.571Z,41.85
2022-11-16T06:35:48.236Z,37.33
2022-11-16T06:38:14.991Z,38.10
2022-11-16T06:40:41.594Z,38.90
2022-11-16T06:43:08.174Z,41.97
2022-11-16T06:45:38.689Z,33.80
2022-11-16T06:48:09.275Z,37.30
2022-11-16T06:50:36.426Z,36.17
2022-11-16T06:53:37.008Z,34.20
2022-11-16T06:56:05.686Z,34.07
2022-11-16T06:58:33.013Z,33.50
2022-11-16T07:01:14.798Z,33.13
2022-11-16T07:03:41.792Z,34.22
2022-11-16T07:06:13.041Z,39.63
2022-11-16T07:08:43.223Z,33.80
2022-11-16T07:11:10.712Z,30.88
2022-11-16T07:13:38.506Z,34.63
2022-11-16T07:16:09.120Z,34.45
2022-11-16T07:18:37.686Z,37.60
2022-11-16T07:21:14.919Z,40.38
2022-11-16T07:23:42.051Z,39.38
2022-11-16T07:26:10.514Z,40.05
2022-11-16T07:28:38.467Z,39.22
2022-11-16T07:31:09.416Z,39.95
2022-11-16T07:33:36.812Z,44.95
2022-11-16T07:38:39.790Z,42.90
2022-11-16T07:41:15.880Z,46.38
2022-11-16T07:43:42.468Z,40.47
2022-11-16T07:49:01.591Z,39.80
2022-11-16T07:51:28.223Z,40.97
2022-11-16T07:53:58.729Z,33.95
2022-11-16T07:56:28.331Z,40.28
2022-11-16T07:58:54.846Z,43.25
2022-11-16T08:01:21.668Z,40.35
2022-11-16T08:03:48.326Z,40.83
2022-11-16T08:06:24.826Z,44.15
2022-11-16T08:09:02.838Z,43.28
2022-11-16T08:11:32.821Z,43.92
2022-11-16T08:14:03.250Z,40.65
2022-11-16T08:16:31.547Z,40.13
2022-11-16T08:18:58.156Z,41.83
2022-11-16T08:21:24.757Z,37.67
2022-11-16T08:23:56.814Z,38.28
2022-11-16T08:26:27.557Z,35.35
2022-11-16T08:28:54.788Z,33.10
2022-11-16T08:31:26.535Z,35.67
2022-11-16T08:33:53.317Z,34.50
2022-11-16T08:36:20.574Z,35.88
2022-11-16T08:38:48.780Z,35.58
2022-11-16T08:41:16.109Z,30.08
2022-11-16T08:43:43.341Z,33.58
2022-11-16T08:46:11.006Z,33.70
2022-11-16T08:48:38.188Z,29.30
2022-11-16T08:51:17.553Z,31.92
2022-11-16T08:53:46.155Z,32.50
2022-11-16T08:56:12.814Z,32.00
2022-11-16T08:58:41.168Z,35.88
2022-11-16T09:01:13.009Z,35.50
2022-11-16T09:03:40.305Z,36.85
2022-11-16T09:06:08.837Z,30.90
2022-11-16T09:08:40.834Z,31.63
2022-11-16T09:11:09.315Z,32.25
2022-11-16T09:13:39.234Z,33.47
2022-11-16T09:16:32.512Z,33.10
2022-11-16T09:18:56.775Z,33.97
2022-11-16T09:21:26.593Z,35.22
2022-11-16T09:23:54.694Z,34.28
2022-11-16T09:26:22.337Z,32.20
2022-11-16T09:28:57.574Z,34.35
2022-11-16T09:31:33.016Z,35.17
2022-11-16T09:34:02.253Z,31.58
2022-11-16T09:36:29.155Z,31.23
2022-11-16T09:41:55.922Z,34.85
2022-11-16T09:44:36.622Z,28.67
2022-11-16T09:47:05.088Z,32.55
2022-11-16T09:49:40.952Z,30.20
2022-11-16T09:52:34.405Z,30.40
2022-11-16T09:55:18.247Z,31.75
2022-11-16T09:57:47.352Z,33.28
2022-11-16T10:00:20.973Z,27.10
2022-11-16T10:03:12.175Z,29.23
2022-11-16T10:06:06.316Z,28.20
2022-11-16T10:08:52.821Z,24.70
2022-11-16T10:11:33.994Z,28.75
2022-11-16T10:14:15.605Z,22.60
2022-11-16T10:17:02.095Z,26.83
2022-11-16T10:19:38.743Z,25.00
2022-11-16T10:22:43.309Z,23.38
2022-11-16T10:25:24.986Z,19.52
2022-11-16T10:28:07.831Z,24.00
2022-11-16T10:30:40.253Z,21.05
2022-11-16T10:33:12.756Z,19.92
2022-11-16T10:35:49.840Z,17.05
2022-11-16T10:38:20.308Z,16.00
2022-11-16T10:40:51.863Z,18.83
2022-11-16T10:43:24.166Z,16.25
2022-11-16T10:46:09.365Z,16.48
2022-11-16T10:48:46.773Z,16.55
2022-11-16T10:51:13.310Z,16.92
2022-11-16T10:53:42.616Z,15.48
2022-11-16T10:56:24.824Z,15.82
2022-11-16T10:58:52.998Z,14.43
2022-11-16T11:01:31.923Z,13.60
2022-11-16T11:04:12.310Z,15.05
2022-11-16T11:06:39.513Z,13.32
2022-11-16T11:09:20.198Z,12.70
2022-11-16T11:11:58.508Z,15.07
2022-11-16T11:14:27.997Z,12.77
2022-11-16T11:16:54.743Z,11.15
2022-11-16T11:19:28.016Z,9.63
2022-11-16T11:22:01.227Z,11.02
2022-11-16T11:24:44.084Z,12.93
2022-11-16T11:27:19.320Z,13.73
2022-11-16T11:29:52.136Z,13.13
2022-11-16T11:32:24.235Z,12.18
2022-11-16T11:34:54.057Z,10.65
2022-11-16T11:37:32.914Z,11.18
2022-11-16T11:40:20.235Z,9.43
2022-11-16T11:43:02.494Z,9.30
2022-11-16T11:45:57.216Z,8.05
2022-11-16T11:48:56.620Z,6.88
2022-11-16T11:51:30.330Z,8.10
2022-11-16T11:53:58.980Z,7.60
2022-11-16T11:56:27.277Z,6.57
2022-11-16T11:58:54.686Z,7.65
2022-11-16T12:01:53.431Z,7.57
2022-11-16T12:04:41.741Z,8.07
2022-11-16T12:07:42.564Z,8.20
2022-11-16T12:10:18.063Z,7.80
2022-11-16T12:12:47.376Z,8.35
2022-11-16T12:15:29.371Z,8.07
2022-11-16T12:18:23.327Z,8.23
2022-11-16T12:21:12.800Z,8.88
2022-11-16T12:24:04.096Z,8.63
2022-11-16T12:27:17.657Z,8.98
2022-11-16T12:30:05.715Z,9.50
2022-11-16T12:33:02.617Z,9.35
2022-11-16T12:36:02.301Z,9.20
2022-11-16T12:39:00.077Z,9.48
2022-11-16T12:41:32.840Z,8.50
2022-11-16T12:44:24.519Z,10.15
2022-11-16T12:47:20.562Z,9.95
2022-11-16T12:50:15.155Z,9.68
2022-11-16T12:53:14.079Z,10.38
2022-11-16T12:55:40.605Z,9.70
2022-11-16T12:58:43.999Z,9.77
2022-11-16T13:01:22.727Z,10.02
2022-11-16T13:03:58.863Z,9.57
2022-11-16T13:06:34.203Z,9.77
2022-11-16T13:09:11.118Z,10.43
2022-11-16T13:11:42.464Z,11.35
2022-11-16T13:14:19.004Z,9.85
2022-11-16T13:16:47.333Z,10.13
2022-11-16T13:19:21.520Z,9.52
2022-11-16T13:22:33.724Z,10.80
2022-11-16T13:25:15.097Z,12.93
2022-11-16T13:27:49.413Z,10.07
2022-11-16T13:30:32.896Z,11.65
2022-11-16T13:33:17.972Z,15.38
2022-11-16T13:35:44.673Z,12.80
2022-11-16T13:38:12.563Z,13.77
2022-11-16T13:40:43.212Z,11.32
2022-11-16T13:43:09.723Z,11.48
2022-11-16T13:45:41.700Z,11.10
2022-11-16T13:48:22.276Z,10.93
2022-11-16T13:50:57.254Z,11.05
2022-11-16T13:56:28.922Z,10.63
2022-11-16T13:58:58.153Z,12.02
2022-11-16T14:01:24.861Z,10.55
2022-11-16T14:04:15.191Z,10.45
2022-11-16T14:06:57.607Z,10.27
2022-11-16T14:09:45.100Z,11.35
2022-11-16T14:12:52.804Z,10.75
2022-11-16T14:15:23.589Z,11.23
2022-11-16T14:17:54.534Z,10.35
2022-11-16T14:20:34.968Z,10.77
2022-11-16T14:23:22.575Z,10.98
2022-11-16T14:26:10.582Z,9.63
2022-11-16T14:28:48.666Z,9.52
2022-11-16T14:31:29.076Z,9.77
2022-11-16T14:33:58.000Z,11.00
2022-11-16T14:36:40.194Z,9.02
2022-11-16T14:39:33.470Z,8.68
2022-11-16T14:42:25.797Z,8.63
2022-11-16T14:45:02.045Z,9.48
2022-11-16T14:47:33.932Z,8.25
2022-11-16T14:50:00.909Z,7.45
2022-11-16T14:52:36.620Z,8.52
2022-11-16T14:55:07.473Z,8.15
2022-11-16T14:57:34.460Z,8.07
2022-11-16T15:00:11.886Z,8.70
2022-11-16T15:02:40.152Z,8.15
2022-11-16T15:05:18.186Z,7.97
2022-11-16T15:07:47.917Z,8.55
2022-11-16T15:10:18.442Z,8.70
2022-11-16T15:12:51.698Z,8.90
2022-11-16T15:15:31.450Z,10.13
2022-11-16T15:18:05.758Z,7.95
2022-11-16T15:20:34.782Z,10.23
2022-11-16T15:23:03.675Z,11.30
2022-11-16T15:25:33.471Z,10.55
2022-11-16T15:28:22.116Z,11.93
2022-11-16T15:30:51.769Z,12.43
2022-11-16T15:33:29.344Z,14.13
2022-11-16T15:35:56.478Z,14.40
2022-11-16T15:38:29.295Z,17.13
2022-11-16T15:41:01.437Z,18.50
2022-11-16T15:43:45.040Z,15.73
2022-11-16T15:46:13.946Z,15.77
2022-11-16T15:48:41.067Z,17.17
2022-11-16T15:51:08.642Z,17.38
2022-11-16T15:53:48.922Z,18.33
2022-11-16T15:56:33.233Z,17.85
2022-11-16T15:59:12.145Z,17.30
2022-11-16T16:01:45.376Z,17.77
2022-11-16T16:04:17.236Z,17.55
2022-11-16T16:07:16.799Z,17.42
2022-11-16T16:09:48.100Z,16.63
2022-11-16T16:12:22.964Z,19.52
2022-11-16T16:14:51.509Z,16.52
2022-11-16T16:17:36.517Z,18.92
2022-11-16T16:20:05.484Z,17.42
2022-11-16T16:22:37.030Z,21.13
2022-11-16T16:25:05.868Z,18.70
2022-11-16T16:27:41.411Z,19.83
2022-11-16T16:30:13.530Z,17.45
2022-11-16T16:32:43.059Z,16.77
2022-11-16T16:35:22.740Z,17.83
2022-11-16T16:37:50.731Z,19.15
2022-11-16T16:40:18.208Z,20.77
2022-11-16T16:42:45.358Z,17.40
2022-11-16T16:45:17.660Z,17.08
2022-11-16T16:47:44.551Z,17.42
2022-11-16T16:50:11.083Z,17.42
2022-11-16T16:52:37.653Z,19.80
2022-11-16T16:55:04.690Z,17.15
2022-11-16T16:57:31.337Z,19.80
2022-11-16T16:59:57.907Z,16.35
2022-11-16T17:02:24.444Z,19.33
2022-11-16T17:04:51.194Z,20.10
2022-11-16T17:07:22.464Z,19.58
2022-11-16T17:10:00.983Z,18.35
2022-11-16T17:12:27.900Z,18.85
2022-11-16T17:15:00.753Z,17.77
2022-11-16T17:17:31.853Z,18.75
2022-11-16T17:19:58.422Z,17.17
2022-11-16T17:22:25.005Z,15.15
2022-11-16T17:24:51.578Z,16.30
2022-11-16T17:27:18.132Z,14.35
2022-11-16T17:29:53.680Z,16.98
2022-11-16T17:32:24.622Z,14.15
2022-11-16T17:34:51.182Z,15.52
2022-11-16T17:37:20.920Z,15.77
2022-11-16T17:39:47.662Z,15.85
2022-11-16T17:42:14.174Z,16.63
2022-11-16T17:44:40.813Z,15.50
2022-11-16T17:47:07.540Z,15.05
2022-11-16T17:49:34.097Z,14.65
2022-11-16T17:52:00.937Z,13.90
2022-11-16T17:54:27.515Z,14.93
2022-11-16T17:56:54.096Z,15.23
2022-11-16T17:59:24.969Z,14.02
2022-11-16T18:01:54.652Z,15.98
2022-11-16T18:04:21.175Z,14.93
2022-11-16T18:06:47.825Z,14.43
2022-11-16T18:09:14.442Z,14.20
2022-11-16T18:11:41.382Z,15.32
2022-11-16T18:14:08.049Z,18.02
2022-11-16T18:16:34.629Z,19.30
2022-11-16T18:19:03.938Z,16.63
2022-11-16T18:21:31.115Z,15.60
2022-11-16T18:24:01.056Z,15.43
2022-11-16T18:26:28.013Z,15.80
2022-11-16T18:28:54.626Z,18.42
2022-11-16T18:31:33.224Z,16.15
2022-11-16T18:34:01.479Z,15.27
2022-11-16T18:36:28.044Z,15.88
2022-11-16T18:38:54.578Z,18.00
2022-11-16T18:41:23.637Z,16.40
2022-11-16T18:44:01.048Z,18.48
2022-11-16T18:46:29.850Z,17.20
2022-11-16T18:48:56.961Z,16.08
2022-11-16T18:51:28.256Z,15.90
2022-11-16T18:53:55.270Z,16.67
2022-11-16T18:56:25.172Z,15.82
2022-11-16T18:58:53.563Z,16.90
2022-11-16T19:01:25.244Z,17.33
2022-11-16T19:03:53.264Z,18.67
2022-11-16T19:06:20.451Z,16.75
2022-11-16T19:08:55.041Z,17.23
2022-11-16T19:11:24.958Z,17.08
2022-11-16T19:13:55.021Z,18.80
2022-11-16T19:16:22.184Z,14.68
2022-11-16T19:18:48.688Z,19.00
2022-11-16T19:21:26.676Z,19.73
2022-11-16T19:23:55.426Z,18.67
2022-11-16T19:26:24.913Z,18.33
2022-11-16T19:28:54.872Z,17.02
2022-11-16T19:31:32.458Z,21.67
2022-11-16T19:34:01.314Z,17.85
2022-11-16T19:36:29.640Z,17.92
2022-11-16T19:38:56.444Z,21.20
2022-11-16T19:41:28.808Z,18.58
2022-11-16T19:43:58.606Z,20.48
2022-11-16T19:46:26.793Z,18.40
2022-11-16T19:48:56.675Z,18.08
2022-11-16T19:51:27.731Z,21.40
2022-11-16T19:53:57.735Z,19.25
2022-11-16T19:56:26.734Z,21.00
2022-11-16T19:58:53.736Z,25.10
2022-11-16T20:01:26.312Z,24.85
2022-11-16T20:03:54.875Z,22.52
2022-11-16T20:06:24.189Z,26.40
2022-11-16T20:08:53.068Z,23.52
2022-11-16T20:11:27.264Z,23.08
2022-11-16T20:13:58.759Z,21.58
2022-11-16T20:19:12.472Z,25.00
2022-11-16T20:21:41.415Z,22.30
2022-11-16T20:24:20.805Z,27.58
2022-11-16T20:26:48.837Z,24.55
2022-11-16T20:29:16.764Z,25.40
2022-11-16T20:31:43.987Z,24.38
2022-11-16T20:34:15.786Z,23.77
2022-11-16T20:36:44.771Z,23.35
2022-11-16T20:39:19.826Z,26.60
2022-11-16T20:41:47.362Z,27.15
2022-11-16T20:44:18.484Z,25.90
2022-11-16T20:46:46.349Z,28.50
2022-11-16T20:49:27.279Z,24.33
2022-11-16T20:51:53.900Z,25.20
2022-11-16T20:54:20.489Z,24.50
2022-11-16T20:56:47.214Z,24.88
2022-11-16T20:59:14.258Z,25.10
2022-11-16T21:01:52.045Z,25.58
2022-11-16T21:04:18.763Z,26.02
2022-11-16T21:06:45.344Z,24.83
2022-11-16T21:09:33.175Z,25.27
2022-11-16T21:11:59.728Z,21.98
2022-11-16T21:14:38.908Z,23.25
2022-11-16T21:17:08.147Z,23.65
2022-11-16T21:19:34.740Z,22.88
2022-11-16T21:22:01.291Z,24.98
2022-11-16T21:24:27.850Z,23.33
2022-11-16T21:26:56.693Z,22.88
2022-11-16T21:32:03.721Z,23.70
2022-11-16T21:34:35.895Z,23.48
2022-11-16T21:37:08.402Z,22.17
2022-11-16T21:39:34.918Z,23.42
2022-11-16T21:42:03.763Z,22.38
2022-11-16T21:44:30.316Z,21.98
2022-11-16T21:47:03.796Z,24.58
2022-11-16T21:50:00.855Z,25.33
2022-11-16T21:52:30.520Z,21.35
2022-11-16T21:54:57.064Z,23.27
2022-11-16T21:57:26.669Z,22.35
2022-11-16T21:59:53.301Z,21.98
2022-11-16T22:02:22.639Z,22.95
2022-11-16T22:04:49.313Z,21.52
2022-11-16T22:07:16.940Z,20.92
2022-11-16T22:09:43.589Z,23.13
2022-11-16T22:12:12.451Z,22.55
2022-11-16T22:14:40.169Z,20.88
2022-11-16T22:17:15.104Z,22.02
2022-11-16T22:19:42.059Z,22.20
2022-11-16T22:22:16.370Z,21.65
2022-11-16T22:24:45.845Z,24.15
2022-11-16T22:27:12.607Z,20.55
2022-11-16T22:29:39.248Z,19.45
2022-11-16T22:32:05.898Z,20.90
2022-11-16T22:34:32.421Z,18.27
2022-11-16T22:36:59.051Z,21.10
2022-11-16T22:39:25.577Z,20.85
2022-11-16T22:41:52.110Z,18.17
2022-11-16T22:44:18.662Z,19.40
2022-11-16T22:46:45.262Z,20.92
2022-11-16T22:49:11.815Z,16.88
2022-11-16T22:51:38.374Z,20.17
2022-11-16T22:54:05.820Z,20.15
2022-11-16T22:56:33.521Z,22.67
2022-11-16T22:59:01.341Z,20.35
2022-11-16T23:01:28.052Z,20.58
2022-11-16T23:03:56.471Z,19.83
2022-11-16T23:06:23.289Z,17.73
2022-11-16T23:08:51.583Z,18.80
2022-11-16T23:11:22.872Z,16.85
2022-11-16T23:13:49.523Z,18.95
2022-11-16T23:16:16.106Z,17.40
2022-11-16T23:18:42.684Z,16.80
2022-11-16T23:21:11.675Z,17.08
2022-11-16T23:23:39.381Z,17.80
2022-11-16T23:26:17.286Z,17.05
2022-11-16T23:28:43.838Z,21.25
2022-11-16T23:31:10.438Z,19.02
2022-11-16T23:33:41.448Z,16.67
2022-11-16T23:36:14.036Z,18.15
2022-11-16T23:38:44.494Z,15.88
2022-11-16T23:41:11.168Z,16.92
2022-11-16T23:43:37.959Z,17.70
2022-11-16T23:46:05.843Z,15.70
2022-11-16T23:48:41.585Z,15.35
2022-11-16T23:51:09.571Z,18.15
2022-11-16T23:53:36.390Z,16.83
2022-11-16T23:56:06.084Z,15.00
2022-11-16T23:58:34.355Z,19.50
